createdAt,value
2022-12-29T00:02:23.957Z,11.06
2022-12-29T00:04:51.630Z,11.00
2022-12-29T00:07:19.276Z,11.09
2022-12-29T00:09:46.039Z,11.06
2022-12-29T00:12:12.820Z,11.12
2022-12-29T00:14:58.268Z,11.19
2022-12-29T00:17:24.929Z,11.19
2022-12-29T00:20:09.932Z,11.22
2022-12-29T00:22:55.267Z,11.21
2022-12-29T00:25:40.746Z,11.20
2022-12-29T00:28:45.324Z,11.23
2022-12-29T00:31:31.943Z,11.25
2022-12-29T00:34:18.050Z,11.26
2022-12-29T00:36:45.386Z,11.28
2022-12-29T00:39:37.801Z,11.36
2022-12-29T00:42:21.067Z,11.40
2022-12-29T00:44:47.875Z,11.42
2022-12-29T00:47:14.604Z,11.21
2022-12-29T00:49:41.278Z,11.24
2022-12-29T00:52:10.873Z,11.35
2022-12-29T00:54:39.684Z,11.45
2022-12-29T00:57:08.166Z,11.30
2022-12-29T00:59:42.758Z,11.36
2022-12-29T01:02:11.031Z,11.40
2022-12-29T01:04:38.094Z,11.25
2022-12-29T01:07:05.089Z,11.37
2022-12-29T01:09:51.043Z,11.31
2022-12-29T01:12:17.999Z,11.28
2022-12-29T01:14:45.052Z,11.27
2022-12-29T01:17:11.710Z,11.35
2022-12-29T01:19:39.232Z,11.33
2022-12-29T01:22:05.919Z,11.26
2022-12-29T01:24:32.679Z,11.39
2022-12-29T01:26:59.419Z,11.34
2022-12-29T01:29:26.121Z,11.38
2022-12-29T01:31:52.938Z,11.44
2022-12-29T01:34:19.831Z,11.41
2022-12-29T01:36:46.637Z,11.44
2022-12-29T01:39:14.386Z,11.42
2022-12-29T01:41:42.463Z,11.45
2022-12-29T01:44:46.746Z,11.46
2022-12-29T01:47:26.489Z,11.43
2022-12-29T01:49:58.991Z,11.42
2022-12-29T01:52:29.168Z,11.42
2022-12-29T01:54:58.737Z,11.37
2022-12-29T01:57:30.703Z,11.39
2022-12-29T02:00:02.331Z,11.39
2022-12-29T02:02:41.470Z,11.35
2022-12-29T02:05:15.291Z,11.36
2022-12-29T02:07:43.229Z,11.37
2022-12-29T02:10:11.004Z,11.41
2022-12-29T02:12:37.833Z,11.38
2022-12-29T02:15:05.210Z,11.37
2022-12-29T02:17:57.929Z,11.37
2022-12-29T02:20:50.830Z,11.44
2022-12-29T02:23:39.371Z,11.45
2022-12-29T02:26:32.437Z,11.44
2022-12-29T02:29:22.115Z,11.46
2022-12-29T02:32:08.873Z,11.44
2022-12-29T02:34:58.571Z,11.48
2022-12-29T02:37:49.140Z,11.52
2022-12-29T02:40:26.240Z,11.50
2022-12-29T02:43:25.511Z,11.56
2022-12-29T02:45:59.726Z,11.54
2022-12-29T02:48:33.660Z,11.57
2022-12-29T02:51:04.417Z,11.56
2022-12-29T02:53:53.876Z,11.55
2022-12-29T02:56:20.779Z,11.51
2022-12-29T02:58:47.558Z,11.53
2022-12-29T03:01:32.688Z,11.45
2022-12-29T03:04:14.886Z,11.62
2022-12-29T03:07:13.294Z,11.47
2022-12-29T03:09:48.709Z,11.54
2022-12-29T03:12:24.588Z,11.59
2022-12-29T03:15:21.448Z,11.50
2022-12-29T03:18:11.610Z,11.57
2022-12-29T03:20:53.433Z,11.50
2022-12-29T03:23:22.786Z,11.57
2022-12-29T03:25:55.373Z,11.48
2022-12-29T03:28:27.143Z,11.56
2022-12-29T03:30:55.828Z,11.53
2022-12-29T03:33:26.349Z,11.52
2022-12-29T03:36:00.163Z,11.44
2022-12-29T03:38:38.910Z,11.41
2022-12-29T03:41:10.381Z,11.46
2022-12-29T03:43:37.128Z,11.51
2022-12-29T03:46:03.887Z,11.44
2022-12-29T03:48:30.674Z,11.51
2022-12-29T03:50:57.308Z,11.47
2022-12-29T03:53:24.084Z,11.48
2022-12-29T03:55:51.364Z,11.44
2022-12-29T03:58:18.040Z,11.26
2022-12-29T04:01:08.183Z,11.48
2022-12-29T04:03:37.756Z,11.39
2022-12-29T04:06:05.694Z,11.47
2022-12-29T04:08:56.930Z,11.48
2022-12-29T04:11:28.320Z,11.51
2022-12-29T04:13:58.586Z,11.49
2022-12-29T04:16:27.098Z,11.52
2022-12-29T04:18:53.743Z,11.50
2022-12-29T04:21:21.110Z,11.44
2022-12-29T04:23:48.615Z,11.56
2022-12-29T04:26:17.189Z,11.56
2022-12-29T04:28:54.855Z,11.54
2022-12-29T04:31:33.688Z,11.48
2022-12-29T04:34:01.815Z,11.55
2022-12-29T04:36:30.338Z,11.55
2022-12-29T04:38:57.812Z,11.55
2022-12-29T04:41:25.340Z,11.53
2022-12-29T04:43:52.199Z,11.52
2022-12-29T04:46:37.329Z,11.48
2022-12-29T04:49:30.047Z,11.52
2022-12-29T04:52:09.287Z,11.48
2022-12-29T04:54:37.327Z,11.45
2022-12-29T04:57:12.454Z,11.53
2022-12-29T04:59:46.042Z,11.53
2022-12-29T05:02:12.960Z,11.54
2022-12-29T05:04:39.954Z,11.53
2022-12-29T05:07:07.209Z,11.52
2022-12-29T05:09:34.586Z,11.50
2022-12-29T05:12:01.939Z,11.45
2022-12-29T05:14:30.132Z,11.47
2022-12-29T05:16:57.032Z,11.46
2022-12-29T05:19:25.624Z,11.44
2022-12-29T05:21:52.792Z,11.49
2022-12-29T05:24:19.543Z,11.55
2022-12-29T05:26:46.220Z,11.36
2022-12-29T05:29:31.531Z,11.53
2022-12-29T05:31:58.658Z,11.42
2022-12-29T05:34:25.663Z,11.35
2022-12-29T05:36:52.398Z,11.31
2022-12-29T05:39:19.341Z,11.36
2022-12-29T05:41:51.124Z,11.39
2022-12-29T05:44:50.993Z,11.37
2022-12-29T05:47:24.749Z,11.23
2022-12-29T05:50:10.331Z,11.42
2022-12-29T05:52:55.578Z,11.52
2022-12-29T05:55:22.641Z,11.47
2022-12-29T05:57:52.327Z,11.50
2022-12-29T06:00:19.185Z,11.46
2022-12-29T06:02:47.433Z,11.42
2022-12-29T06:05:15.972Z,11.26
2022-12-29T06:07:42.981Z,11.30
2022-12-29T06:10:10.234Z,11.45
2022-12-29T06:12:45.197Z,11.55
2022-12-29T06:15:12.047Z,11.46
2022-12-29T06:17:41.612Z,11.52
2022-12-29T06:20:09.336Z,11.63
2022-12-29T06:22:36.332Z,11.36
2022-12-29T06:25:05.433Z,11.37
2022-12-29T06:27:34.458Z,11.35
2022-12-29T06:30:01.097Z,11.34
2022-12-29T06:32:31.617Z,11.51
2022-12-29T06:35:05.591Z,11.59
2022-12-29T06:37:32.709Z,11.58
2022-12-29T06:39:59.586Z,11.49
2022-12-29T06:42:33.977Z,11.44
2022-12-29T06:45:17.062Z,11.53
2022-12-29T06:47:44.156Z,11.56
2022-12-29T06:50:10.805Z,11.73
2022-12-29T06:52:37.435Z,11.75
2022-12-29T06:55:04.553Z,11.70
2022-12-29T06:57:31.166Z,11.49
2022-12-29T06:59:57.885Z,11.55
2022-12-29T07:02:26.503Z,11.46
2022-12-29T07:04:54.132Z,11.40
2022-12-29T07:07:21.701Z,11.74
2022-12-29T07:09:48.549Z,11.73
2022-12-29T07:12:15.322Z,11.75
2022-12-29T07:14:43.555Z,11.83
2022-12-29T07:17:10.642Z,11.86
2022-12-29T07:19:37.475Z,11.85
2022-12-29T07:22:04.134Z,11.68
2022-12-29T07:24:30.847Z,11.81
2022-12-29T07:26:57.576Z,11.84
2022-12-29T07:29:24.323Z,11.78
2022-12-29T07:31:51.048Z,11.85
2022-12-29T07:34:17.759Z,11.84
2022-12-29T07:36:44.448Z,11.77
2022-12-29T07:39:12.542Z,11.79
2022-12-29T07:41:39.356Z,11.92
2022-12-29T07:44:10.113Z,11.90
2022-12-29T07:46:59.948Z,11.89
2022-12-29T07:49:27.341Z,11.88
2022-12-29T07:51:54.178Z,11.89
2022-12-29T07:54:20.933Z,11.87
2022-12-29T07:56:47.749Z,11.94
2022-12-29T07:59:14.342Z,11.99
2022-12-29T08:01:41.296Z,12.01
2022-12-29T08:04:08.428Z,11.97
2022-12-29T08:06:35.160Z,11.99
2022-12-29T08:09:09.882Z,12.01
2022-12-29T08:11:39.364Z,12.02
2022-12-29T08:14:06.078Z,12.02
2022-12-29T08:16:33.530Z,11.95
2022-12-29T08:19:00.470Z,12.06
2022-12-29T08:21:30.647Z,12.05
2022-12-29T08:23:57.491Z,12.00
2022-12-29T08:26:24.212Z,12.05
2022-12-29T08:28:53.590Z,12.07
2022-12-29T08:31:20.598Z,12.11
2022-12-29T08:33:47.297Z,12.08
2022-12-29T08:36:13.993Z,12.13
2022-12-29T08:38:40.661Z,12.16
2022-12-29T08:41:07.669Z,12.05
2022-12-29T08:43:34.355Z,12.12
2022-12-29T08:46:01.424Z,12.07
2022-12-29T08:48:28.219Z,12.18
2022-12-29T08:50:54.866Z,12.18
2022-12-29T08:53:21.641Z,12.19
2022-12-29T08:56:02.123Z,12.15
2022-12-29T08:58:34.723Z,12.12
2022-12-29T09:01:01.814Z,12.23
2022-12-29T09:04:04.534Z,12.19
2022-12-29T09:06:17.706Z,12.09
2022-12-29T09:08:45.473Z,12.27
2022-12-29T09:11:13.886Z,12.30
2022-12-29T09:13:40.677Z,12.27
2022-12-29T09:16:07.894Z,12.28
2022-12-29T09:18:35.801Z,12.26
2022-12-29T09:21:05.623Z,12.35
2022-12-29T09:23:33.040Z,12.42
2022-12-29T09:25:59.909Z,12.55
2022-12-29T09:28:26.877Z,12.69
2022-12-29T09:30:53.832Z,12.75
2022-12-29T09:33:20.561Z,12.76
2022-12-29T09:35:52.452Z,12.73
2022-12-29T09:38:19.545Z,12.72
2022-12-29T09:40:56.749Z,12.67
2022-12-29T09:44:00.461Z,12.64
2022-12-29T09:46:30.672Z,12.70
2022-12-29T09:49:18.825Z,12.68
2022-12-29T09:51:51.803Z,12.60
2022-12-29T09:54:28.033Z,12.69
2022-12-29T09:56:56.319Z,12.67
2022-12-29T09:59:28.044Z,12.60
2022-12-29T10:02:13.312Z,12.59
2022-12-29T10:04:42.855Z,12.56
2022-12-29T10:07:31.757Z,12.51
2022-12-29T10:10:11.078Z,12.45
2022-12-29T10:13:02.318Z,12.42
2022-12-29T10:15:49.080Z,12.47
2022-12-29T10:18:53.501Z,12.42
2022-12-29T10:21:47.170Z,12.44
2022-12-29T10:24:14.243Z,12.44
2022-12-29T10:26:43.341Z,12.51
2022-12-29T10:29:46.889Z,12.50
2022-12-29T10:32:36.332Z,12.49
2022-12-29T10:35:18.530Z,12.56
2022-12-29T10:38:14.026Z,12.58
2022-12-29T10:40:46.244Z,12.62
2022-12-29T10:43:27.066Z,12.65
2022-12-29T10:45:59.539Z,12.67
2022-12-29T10:48:32.227Z,12.67
2022-12-29T10:51:02.672Z,12.68
2022-12-29T10:53:48.400Z,12.68
2022-12-29T10:56:34.118Z,12.64
2022-12-29T10:59:14.300Z,12.66
2022-12-29T11:02:16.949Z,12.71
2022-12-29T11:05:08.362Z,12.69
2022-12-29T11:07:36.909Z,12.79
2022-12-29T11:10:37.936Z,12.75
2022-12-29T11:13:26.267Z,12.82
2022-12-29T11:15:53.199Z,12.99
2022-12-29T11:18:24.526Z,13.07
2022-12-29T11:20:57.039Z,13.15
2022-12-29T11:23:27.455Z,13.19
2022-12-29T11:26:17.924Z,13.32
2022-12-29T11:28:47.506Z,13.13
2022-12-29T11:31:18.729Z,13.12
2022-12-29T11:33:46.025Z,13.18
2022-12-29T11:36:20.066Z,13.23
2022-12-29T11:38:51.448Z,13.18
2022-12-29T11:41:25.003Z,13.08
2022-12-29T11:43:53.667Z,13.13
2022-12-29T11:46:28.365Z,13.11
2022-12-29T11:49:00.328Z,13.14
2022-12-29T11:51:44.022Z,13.11
2022-12-29T11:54:22.923Z,13.17
2022-12-29T11:56:50.078Z,13.21
2022-12-29T11:59:56.026Z,13.21
2022-12-29T12:02:44.122Z,13.19
2022-12-29T12:05:19.117Z,13.13
2022-12-29T12:07:50.925Z,13.06
2022-12-29T12:10:23.599Z,13.09
2022-12-29T12:13:02.737Z,13.10
2022-12-29T12:15:43.448Z,13.05
2022-12-29T12:18:32.768Z,12.97
2022-12-29T12:21:24.178Z,12.95
2022-12-29T12:24:02.939Z,12.83
2022-12-29T12:26:36.136Z,12.82
2022-12-29T12:29:20.219Z,12.83
2022-12-29T12:31:55.575Z,12.63
2022-12-29T12:34:39.645Z,12.68
2022-12-29T12:37:36.351Z,12.71
2022-12-29T12:40:36.355Z,12.57
2022-12-29T12:43:11.249Z,12.65
2022-12-29T12:46:07.894Z,12.46
2022-12-29T12:49:06.592Z,12.52
2022-12-29T12:52:30.497Z,12.41
2022-12-29T12:55:07.512Z,12.40
2022-12-29T12:58:04.909Z,12.44
2022-12-29T13:01:02.061Z,12.56
2022-12-29T13:03:53.719Z,12.65
2022-12-29T13:06:51.039Z,12.67
2022-12-29T13:09:32.747Z,12.61
2022-12-29T13:12:20.872Z,12.67
2022-12-29T13:15:09.124Z,12.69
2022-12-29T13:17:50.587Z,12.68
2022-12-29T13:20:38.947Z,12.64
2022-12-29T13:23:24.577Z,12.46
2022-12-29T13:25:55.157Z,12.51
2022-12-29T13:28:33.219Z,12.35
2022-12-29T13:31:25.758Z,12.37
2022-12-29T13:33:56.385Z,12.36
2022-12-29T13:36:29.228Z,12.31
2022-12-29T13:39:05.122Z,12.22
2022-12-29T13:41:41.178Z,12.26
2022-12-29T13:44:16.639Z,12.19
2022-12-29T13:46:47.695Z,12.24
2022-12-29T13:49:17.947Z,12.24
2022-12-29T13:52:00.265Z,12.10
2022-12-29T13:54:30.025Z,11.98
2022-12-29T13:57:13.096Z,11.92
2022-12-29T14:00:02.652Z,11.85
2022-12-29T14:02:48.337Z,11.76
2022-12-29T14:05:21.253Z,11.72
2022-12-29T14:07:49.603Z,11.59
2022-12-29T14:10:30.358Z,11.50
2022-12-29T14:13:13.702Z,11.52
2022-12-29T14:15:43.293Z,11.51
2022-12-29T14:18:17.544Z,11.44
2022-12-29T14:21:06.075Z,11.36
2022-12-29T14:23:35.432Z,11.35
2022-12-29T14:26:08.191Z,11.41
2022-12-29T14:28:39.942Z,11.38
2022-12-29T14:31:15.920Z,11.37
2022-12-29T14:34:11.507Z,11.33
2022-12-29T14:36:39.729Z,11.29
2022-12-29T14:39:28.835Z,11.40
2022-12-29T14:42:10.669Z,11.40
2022-12-29T14:44:57.420Z,11.43
2022-12-29T14:47:44.696Z,11.32
2022-12-29T14:50:11.444Z,11.36
2022-12-29T14:53:02.011Z,11.35
2022-12-29T14:55:39.494Z,11.29
2022-12-29T14:58:14.149Z,11.30
2022-12-29T15:00:42.498Z,11.26
2022-12-29T15:03:18.739Z,11.25
2022-12-29T15:05:49.689Z,11.36
2022-12-29T15:08:23.863Z,11.44
2022-12-29T15:11:02.449Z,11.52
2022-12-29T15:13:38.588Z,11.39
2022-12-29T15:16:06.677Z,11.43
2022-12-29T15:18:34.630Z,11.46
2022-12-29T15:21:04.493Z,11.47
2022-12-29T15:23:33.428Z,11.39
2022-12-29T15:26:03.360Z,11.39
2022-12-29T15:28:45.260Z,11.30
2022-12-29T15:31:29.441Z,11.31
2022-12-29T15:34:10.819Z,11.26
2022-12-29T15:36:39.731Z,11.36
2022-12-29T15:39:20.794Z,11.23
2022-12-29T15:42:03.322Z,11.16
2022-12-29T15:44:40.520Z,11.08
2022-12-29T15:47:23.183Z,11.26
2022-12-29T15:49:53.762Z,11.34
2022-12-29T15:52:22.574Z,10.88
2022-12-29T15:54:51.613Z,11.00
2022-12-29T15:57:27.643Z,10.98
2022-12-29T15:59:55.010Z,11.03
2022-12-29T16:02:24.460Z,11.40
2022-12-29T16:05:16.732Z,11.21
2022-12-29T16:07:52.291Z,11.41
2022-12-29T16:10:39.805Z,11.30
2022-12-29T16:13:40.399Z,11.37
2022-12-29T16:16:36.649Z,11.34
2022-12-29T16:19:27.163Z,11.33
2022-12-29T16:21:54.286Z,11.36
2022-12-29T16:24:25.197Z,11.40
2022-12-29T16:27:23.144Z,11.30
2022-12-29T16:29:54.285Z,11.31
2022-12-29T16:32:30.519Z,11.22
2022-12-29T16:35:27.266Z,11.19
2022-12-29T16:38:12.556Z,11.19
2022-12-29T16:40:50.472Z,11.25
2022-12-29T16:43:29.466Z,11.12
2022-12-29T16:45:59.194Z,11.27
2022-12-29T16:48:52.192Z,11.23
2022-12-29T16:51:36.788Z,11.23
2022-12-29T16:54:05.498Z,11.19
2022-12-29T16:56:35.654Z,11.03
2022-12-29T16:59:08.602Z,11.02
2022-12-29T17:01:38.553Z,11.09
2022-12-29T17:04:13.889Z,11.03
2022-12-29T17:06:41.256Z,11.00
2022-12-29T17:09:34.179Z,11.01
2022-12-29T17:12:10.813Z,10.99
2022-12-29T17:14:41.635Z,11.07
2022-12-29T17:17:32.583Z,11.04
2022-12-29T17:20:07.500Z,11.02
2022-12-29T17:22:34.202Z,11.09
2022-12-29T17:25:02.613Z,10.96
2022-12-29T17:27:41.712Z,10.91
2022-12-29T17:30:14.512Z,10.92
2022-12-29T17:32:43.379Z,10.93
2022-12-29T17:35:17.613Z,11.03
2022-12-29T17:37:45.026Z,11.08
2022-12-29T17:40:18.647Z,11.37
2022-12-29T17:42:48.223Z,11.16
2022-12-29T17:45:15.601Z,11.20
2022-12-29T17:47:42.571Z,11.17
2022-12-29T17:50:16.885Z,11.11
2022-12-29T17:52:47.031Z,11.13
2022-12-29T17:55:17.371Z,11.07
2022-12-29T17:57:44.836Z,11.06
2022-12-29T18:00:30.860Z,10.86
2022-12-29T18:02:58.527Z,11.04
2022-12-29T18:05:30.827Z,11.19
2022-12-29T18:07:59.364Z,11.05
2022-12-29T18:10:28.552Z,10.93
2022-12-29T18:12:59.712Z,10.82
2022-12-29T18:15:29.245Z,10.82
2022-12-29T18:18:22.640Z,10.86
2022-12-29T18:20:52.506Z,10.82
2022-12-29T18:23:28.175Z,10.76
2022-12-29T18:26:07.879Z,10.68
2022-12-29T18:28:34.675Z,10.70
2022-12-29T18:31:02.090Z,10.62
2022-12-29T18:33:29.813Z,10.73
2022-12-29T18:36:04.919Z,10.79
2022-12-29T18:38:31.733Z,10.82
2022-12-29T18:40:59.703Z,10.80
2022-12-29T18:43:26.332Z,10.66
2022-12-29T18:45:53.117Z,10.62
2022-12-29T18:48:20.617Z,10.52
2022-12-29T18:50:51.908Z,10.69
2022-12-29T18:53:22.159Z,10.56
2022-12-29T18:55:51.400Z,10.65
2022-12-29T18:58:18.595Z,10.59
2022-12-29T19:00:45.996Z,10.49
2022-12-29T19:03:14.725Z,10.47
2022-12-29T19:05:43.124Z,10.47
2022-12-29T19:08:11.092Z,10.45
2022-12-29T19:10:38.611Z,10.32
2022-12-29T19:13:05.674Z,10.50
2022-12-29T19:15:35.992Z,10.42
2022-12-29T19:20:53.459Z,10.15
2022-12-29T19:23:23.891Z,10.38
2022-12-29T19:25:51.624Z,10.38
2022-12-29T19:28:21.656Z,10.45
2022-12-29T19:30:52.266Z,10.40
2022-12-29T19:33:25.170Z,10.37
2022-12-29T19:35:52.958Z,10.24
2022-12-29T19:38:20.237Z,10.50
2022-12-29T19:40:50.232Z,10.23
2022-12-29T19:43:17.912Z,10.33
2022-12-29T19:45:45.312Z,10.35
2022-12-29T19:48:19.141Z,10.61
2022-12-29T19:50:45.844Z,10.49
2022-12-29T19:53:13.253Z,10.62
2022-12-29T19:55:47.616Z,10.55
2022-12-29T19:58:14.922Z,10.38
2022-12-29T20:00:43.297Z,10.40
2022-12-29T20:03:10.808Z,10.34
2022-12-29T20:05:39.292Z,10.55
2022-12-29T20:08:06.512Z,10.26
2022-12-29T20:10:33.505Z,10.38
2022-12-29T20:13:00.287Z,10.69
2022-12-29T20:15:27.089Z,10.47
2022-12-29T20:20:40.640Z,10.42
2022-12-29T20:23:07.339Z,10.38
2022-12-29T20:25:44.683Z,10.65
2022-12-29T20:28:12.349Z,10.67
2022-12-29T20:30:39.026Z,10.66
2022-12-29T20:33:08.404Z,10.55
2022-12-29T20:35:36.376Z,10.36
2022-12-29T20:38:03.652Z,10.55
2022-12-29T20:40:30.340Z,10.44
2022-12-29T20:42:56.989Z,10.47
2022-12-29T20:45:23.725Z,10.46
2022-12-29T20:47:50.360Z,10.48
2022-12-29T20:50:18.570Z,10.36
2022-12-29T20:52:46.664Z,10.24
2022-12-29T20:55:13.324Z,10.27
2022-12-29T20:58:13.976Z,10.55
2022-12-29T21:00:26.803Z,10.40
2022-12-29T21:02:55.467Z,10.54
2022-12-29T21:05:24.945Z,10.39
2022-12-29T21:07:53.458Z,10.40
2022-12-29T21:10:20.984Z,10.31
2022-12-29T21:12:48.506Z,10.36
2022-12-29T21:15:15.786Z,10.32
2022-12-29T21:17:43.812Z,10.26
2022-12-29T21:20:19.680Z,10.32
2022-12-29T21:22:49.893Z,10.17
2022-12-29T21:25:16.647Z,10.11
2022-12-29T21:27:44.187Z,10.21
2022-12-29T21:30:12.024Z,10.20
2022-12-29T21:32:39.455Z,10.17
2022-12-29T21:35:06.704Z,10.22
2022-12-29T21:37:33.584Z,10.21
2022-12-29T21:40:00.269Z,10.06
2022-12-29T21:42:29.882Z,10.20
2022-12-29T21:45:20.167Z,10.25
2022-12-29T21:48:09.003Z,10.20
2022-12-29T21:51:02.331Z,10.14
2022-12-29T21:53:38.755Z,10.18
2022-12-29T21:56:10.032Z,10.17
2022-12-29T21:58:57.082Z,10.25
2022-12-29T22:01:43.665Z,10.12
2022-12-29T22:04:33.584Z,10.14
2022-12-29T22:07:20.321Z,10.13
2022-12-29T22:10:05.765Z,10.09
2022-12-29T22:12:51.361Z,10.07
2022-12-29T22:15:18.550Z,10.05
2022-12-29T22:17:51.161Z,9.98
2022-12-29T22:20:23.216Z,9.98
2022-12-29T22:22:50.014Z,9.99
2022-12-29T22:25:16.956Z,10.02
2022-12-29T22:27:43.809Z,9.93
2022-12-29T22:30:11.496Z,9.92
2022-12-29T22:32:38.589Z,9.93
2022-12-29T22:35:08.318Z,9.98
2022-12-29T22:37:39.504Z,9.94
2022-12-29T22:40:09.753Z,9.95
2022-12-29T22:42:36.978Z,9.96
2022-12-29T22:45:04.214Z,9.84
2022-12-29T22:47:31.229Z,9.79
2022-12-29T22:49:57.907Z,9.90
2022-12-29T22:52:24.638Z,9.86
2022-12-29T22:54:51.475Z,9.93
2022-12-29T22:57:18.126Z,9.96
2022-12-29T22:59:44.838Z,10.00
2022-12-29T23:02:11.707Z,10.01
2022-12-29T23:07:25.380Z,9.81
2022-12-29T23:09:52.069Z,9.86
2022-12-29T23:12:18.808Z,9.72
2022-12-29T23:14:45.491Z,9.86
2022-12-29T23:17:12.130Z,9.87
2022-12-29T23:19:38.725Z,9.83
2022-12-29T23:22:05.434Z,9.86
2022-12-29T23:24:32.108Z,9.85
2022-12-29T23:26:59.153Z,9.88
2022-12-29T23:29:26.055Z,9.86
2022-12-29T23:31:52.807Z,9.83
2022-12-29T23:34:19.556Z,9.83
2022-12-29T23:36:46.629Z,9.80
2022-12-29T23:39:23.302Z,9.78
2022-12-29T23:41:50.966Z,9.84
2022-12-29T23:44:17.724Z,9.79
2022-12-29T23:46:44.473Z,9.72
2022-12-29T23:49:11.299Z,9.66
2022-12-29T23:51:38.004Z,9.65
2022-12-29T23:54:04.836Z,9.50
2022-12-29T23:56:31.646Z,9.56
2022-12-29T23:58:58.576Z,9.53
